createdAt,value
2023-01-06T00:03:23.803Z,-0.64
2023-01-06T00:13:27.920Z,-0.51
2023-01-06T00:23:31.958Z,-0.58
2023-01-06T00:33:36.255Z,-0.59
2023-01-06T00:43:42.328Z,-0.78
2023-01-06T00:53:46.128Z,-0.99
2023-01-06T01:03:52.647Z,-0.95
2023-01-06T01:13:58.021Z,-0.99
2023-01-06T01:24:01.923Z,-0.73
2023-01-06T01:34:05.691Z,-0.49
2023-01-06T01:44:48.454Z,-0.73
2023-01-06T01:54:56.248Z,-0.87
2023-01-06T02:05:01.331Z,-0.66
2023-01-06T02:15:33.244Z,-1.02
2023-01-06T02:25:49.320Z,-1.12
2023-01-06T02:36:30.101Z,-1.59
2023-01-06T02:47:13.422Z,-1.65
2023-01-06T02:57:36.023Z,-1.39
2023-01-06T03:07:42.240Z,-1.43
2023-01-06T03:17:45.946Z,-1.81
2023-01-06T03:27:49.636Z,-1.76
2023-01-06T03:38:15.653Z,-1.77
2023-01-06T03:48:31.948Z,-1.59
2023-01-06T03:58:39.141Z,-1.65
2023-01-06T04:08:43.692Z,-1.55
2023-01-06T04:18:47.873Z,-1.70
2023-01-06T04:28:53.146Z,-1.73
2023-01-06T04:38:58.749Z,-1.82
2023-01-06T04:49:02.392Z,-1.36
2023-01-06T04:59:05.961Z,-0.92
2023-01-06T05:09:09.702Z,-0.66
2023-01-06T05:19:13.247Z,-0.45
2023-01-06T05:29:17.882Z,-0.48
2023-01-06T05:39:23.281Z,-1.00
2023-01-06T05:49:26.894Z,-1.25
2023-01-06T05:59:31.194Z,-1.13
2023-01-06T06:09:34.799Z,-1.29
2023-01-06T06:19:38.384Z,-1.43
2023-01-06T06:29:42.784Z,-1.50
2023-01-06T06:39:46.407Z,-1.58
2023-01-06T06:49:51.437Z,-0.78
2023-01-06T06:59:56.987Z,-0.86
2023-01-06T07:10:00.605Z,-0.70
2023-01-06T07:20:04.663Z,-0.94
2023-01-06T07:30:09.087Z,-1.53
2023-01-06T07:40:13.443Z,-1.67
2023-01-06T07:50:17.031Z,-1.47
2023-01-06T08:00:24.815Z,-1.02
2023-01-06T08:10:28.447Z,-0.73
2023-01-06T08:20:34.375Z,-0.54
2023-01-06T08:30:40.352Z,-0.40
2023-01-06T08:40:44.163Z,-0.20
2023-01-06T08:50:47.691Z,0.23
2023-01-06T09:00:52.659Z,0.35
2023-01-06T09:10:56.525Z,0.07
2023-01-06T09:21:00.077Z,-0.53
2023-01-06T09:31:04.222Z,-0.09
2023-01-06T09:41:26.770Z,0.54
2023-01-06T09:51:33.072Z,0.55
2023-01-06T10:01:42.882Z,0.75
2023-01-06T10:11:46.449Z,0.92
2023-01-06T10:22:19.848Z,1.32
2023-01-06T10:32:28.608Z,1.18
2023-01-06T10:42:57.780Z,1.23
2023-01-06T10:53:01.823Z,1.08
2023-01-06T11:03:31.402Z,1.27
2023-01-06T11:13:34.739Z,1.38
2023-01-06T11:23:42.540Z,1.32
2023-01-06T11:33:51.826Z,1.62
2023-01-06T11:44:04.237Z,1.68
2023-01-06T11:54:32.655Z,1.72
2023-01-06T12:04:53.831Z,1.55
2023-01-06T12:14:57.969Z,1.70
2023-01-06T12:25:05.719Z,1.67
2023-01-06T12:35:18.575Z,1.67
2023-01-06T12:45:57.111Z,1.60
2023-01-06T12:56:14.342Z,1.38
2023-01-06T13:06:49.073Z,1.11
2023-01-06T13:17:03.682Z,1.07
2023-01-06T13:27:16.399Z,1.18
2023-01-06T13:37:30.354Z,1.21
2023-01-06T13:47:36.041Z,1.16
2023-01-06T13:57:41.545Z,1.17
2023-01-06T14:08:10.044Z,1.19
2023-01-06T14:18:31.154Z,0.99
2023-01-06T14:28:34.757Z,0.76
2023-01-06T14:38:48.765Z,0.65
2023-01-06T14:49:15.627Z,0.68
2023-01-06T15:11:33.641Z,0.67
2023-01-06T15:21:42.041Z,0.68
2023-01-06T15:31:48.688Z,0.58
2023-01-06T15:41:53.360Z,0.64
2023-01-06T15:52:03.343Z,0.60
2023-01-06T16:02:18.624Z,0.52
2023-01-06T16:12:23.099Z,0.51
2023-01-06T16:22:41.382Z,0.41
2023-01-06T16:32:46.962Z,0.41
2023-01-06T16:42:56.309Z,0.44
2023-01-06T16:53:12.566Z,0.21
2023-01-06T17:03:18.675Z,0.15
2023-01-06T17:13:40.024Z,-0.09
2023-01-06T17:24:33.472Z,-0.20
2023-01-06T17:34:37.859Z,-0.26
2023-01-06T17:44:42.818Z,-0.22
2023-01-06T17:55:18.691Z,-0.21
2023-01-06T18:05:22.314Z,-0.12
2023-01-06T18:15:34.477Z,-0.23
2023-01-06T18:25:39.211Z,-0.17
2023-01-06T18:35:43.957Z,-0.18
2023-01-06T18:45:51.850Z,-0.25
2023-01-06T19:07:33.145Z,-0.42
2023-01-06T19:17:48.855Z,-0.46
2023-01-06T19:27:58.085Z,-0.51
2023-01-06T19:38:09.819Z,-0.53
2023-01-06T19:48:26.902Z,-0.49
2023-01-06T19:58:35.689Z,-0.43
2023-01-06T20:08:41.496Z,-0.43
2023-01-06T20:18:45.003Z,-0.39
2023-01-06T20:28:48.876Z,-0.31
2023-01-06T20:38:52.575Z,-0.36
2023-01-06T20:48:56.072Z,-0.27
2023-01-06T20:58:59.923Z,-0.20
2023-01-06T21:09:03.695Z,-0.25
2023-01-06T21:19:07.215Z,-0.24
2023-01-06T21:29:10.860Z,-0.25
2023-01-06T21:39:16.234Z,-0.21
2023-01-06T21:49:19.687Z,-0.23
2023-01-06T21:59:23.814Z,-0.17
2023-01-06T22:09:30.702Z,-0.04
2023-01-06T22:19:34.971Z,0.04
2023-01-06T22:29:38.659Z,0.15
2023-01-06T22:39:44.232Z,0.20
2023-01-06T22:49:47.872Z,0.19
2023-01-06T22:59:51.421Z,0.24
2023-01-06T23:09:58.171Z,0.35
2023-01-06T23:20:01.751Z,0.51
2023-01-06T23:30:06.322Z,0.58
2023-01-06T23:40:10.437Z,0.57
2023-01-06T23:50:14.489Z,0.59
